Terminal Aerodrome Forecast
Issued by NWS

Home | Current Version | Previous Version | Text Only | Print | Product List | Glossary On
Versions: 1 2 3 4 5 6 7 8 9 10 11 12 13 14 15 16 17 18 19 20 21 22 23 24
791
FTUS43 KDVN 090529
TAFBRL
TAF
KBRL 090529Z 0906/1006 33014KT P6SM VCSH SCT020 OVC060
      TEMPO 0906/0909 2SM -SN BR BKN015 OVC025
     FM090900 32014KT 6SM -SN BR BKN015 OVC025
     FM091800 32015G25KT P6SM SKC=

USA.gov is the U.S. government's official web portal to all federal, state and local government web resources and services.